Time;durP1;ratioP1;P1;durP2;ratioP2;P2;SDS_P1;SDS_P2;PMS_P1;PMS_P2;Temp;Humidity;BMP_temperature;BMP_pressure;BME280_temperature;BME280_humidity;BME280_pressure;Samples;Min_cycle;Max_cycle;Signal;HPM_P1;HPM_P2
2023/11/02 00:01:52;;;;;;;2.30;1.37;;;12.50;99.60;;;;;;5076067;28;20468;-61
2023/11/02 00:04:19;;;;;;;1.77;1.40;;;12.60;99.50;;;;;;5076039;28;20439;-60
2023/11/02 00:06:49;;;;;;;3.87;1.20;;;12.60;99.40;;;;;;5076059;28;20445;-61
2023/11/02 00:09:49;;;;;;;4.40;1.03;;;12.60;99.50;;;;;;5075618;28;20816;-61
2023/11/02 00:12:19;;;;;;;5.70;1.00;;;12.60;99.60;;;;;;5013628;28;20472;-60
2023/11/02 00:14:51;;;;;;;4.77;1.10;;;12.60;99.60;;;;;;5062288;28;20487;-60
2023/11/02 00:17:55;;;;;;;2.80;1.67;;;12.60;99.60;;;;;;5075774;28;20453;-61
2023/11/02 00:20:34;;;;;;;3.37;1.10;;;12.60;99.30;;;;;;5075717;28;20506;-61
2023/11/02 00:23:03;;;;;;;1.60;0.90;;;12.60;99.60;;;;;;5075134;28;20838;-61
2023/11/02 00:25:47;;;;;;;2.53;0.93;;;12.60;99.70;;;;;;5075646;28;20453;-61
2023/11/02 00:28:13;;;;;;;2.33;0.93;;;12.50;99.60;;;;;;5075243;28;20429;-61
2023/11/02 00:30:44;;;;;;;2.70;0.97;;;12.50;99.90;;;;;;5075369;28;20487;-61
2023/11/02 00:33:13;;;;;;;2.37;1.20;;;12.50;99.80;;;;;;5075313;28;20469;-61
2023/11/02 00:35:43;;;;;;;3.87;1.00;;;12.50;99.80;;;;;;5075394;28;20449;-61
2023/11/02 00:38:10;;;;;;;2.43;0.90;;;12.60;99.80;;;;;;5075253;28;20452;-61
2023/11/02 00:40:37;;;;;;;6.13;1.00;;;12.60;99.60;;;;;;5075859;28;20444;-61
2023/11/02 00:43:05;;;;;;;3.30;0.90;;;12.60;99.20;;;;;;5074646;28;21005;-61
2023/11/02 00:45:34;;;;;;;1.80;0.80;;;12.60;99.50;;;;;;5074829;28;20935;-61
2023/11/02 00:48:00;;;;;;;2.20;0.93;;;12.60;99.00;;;;;;5075074;28;20453;-61
2023/11/02 00:50:50;;;;;;;2.80;1.27;;;12.60;98.90;;;;;;5075016;28;20481;-61
2023/11/02 00:53:16;;;;;;;4.93;1.07;;;12.60;99.00;;;;;;5074722;28;20429;-61
2023/11/02 00:55:43;;;;;;;3.50;1.10;;;12.50;98.80;;;;;;5074931;28;20528;-61
2023/11/02 00:58:12;;;;;;;1.07;0.70;;;12.60;99.20;;;;;;5074957;28;20471;-61
2023/11/02 01:01:05;;;;;;;2.43;1.17;;;12.60;99.20;;;;;;5074383;28;20800;-61
2023/11/02 01:03:33;;;;;;;2.17;1.00;;;12.70;99.10;;;;;;5074407;28;20495;-61
2023/11/02 01:06:00;;;;;;;3.50;1.10;;;12.70;98.50;;;;;;5074143;28;21005;-61
2023/11/02 01:08:31;;;;;;;2.00;0.70;;;12.70;98.60;;;;;;5074234;28;20515;-61
2023/11/02 01:10:58;;;;;;;7.63;1.10;;;12.60;98.00;;;;;;5074151;28;20949;-61
2023/11/02 01:13:27;;;;;;;3.87;0.80;;;12.60;98.00;;;;;;5074396;28;20444;-61
2023/11/02 01:16:08;;;;;;;5.53;1.50;;;12.70;98.00;;;;;;5074249;28;20480;-61
2023/11/02 01:18:35;;;;;;;4.57;1.13;;;12.80;97.90;;;;;;5074285;28;20446;-61
2023/11/02 01:21:04;;;;;;;2.50;0.87;;;12.70;97.50;;;;;;5074318;28;20443;-61
2023/11/02 01:23:32;;;;;;;5.70;0.90;;;12.80;97.50;;;;;;5074131;28;20449;-61
2023/11/02 01:26:00;;;;;;;1.17;0.87;;;12.80;97.50;;;;;;5074073;28;20510;-61
2023/11/02 01:28:48;;;;;;;3.03;1.43;;;12.80;97.70;;;;;;5074314;28;20483;-61
2023/11/02 01:31:17;;;;;;;3.00;1.20;;;12.80;97.60;;;;;;5074018;28;20613;-61
2023/11/02 01:33:59;;;;;;;1.60;0.80;;;12.80;97.50;;;;;;5074543;28;20447;-61
2023/11/02 01:36:32;;;;;;;3.73;0.93;;;12.80;97.30;;;;;;5076449;28;20522;-61
2023/11/02 01:39:02;;;;;;;3.67;1.00;;;12.80;97.30;;;;;;5073894;28;20453;-61
2023/11/02 01:41:43;;;;;;;2.47;0.90;;;12.80;97.30;;;;;;5073924;28;20464;-61
2023/11/02 01:44:19;;;;;;;1.57;1.20;;;12.80;97.40;;;;;;5073988;28;20420;-61
2023/11/02 01:46:57;;;;;;;3.90;1.00;;;12.70;97.50;;;;;;5073978;28;20451;-61
2023/11/02 01:49:51;;;;;;;3.07;0.80;;;12.80;97.70;;;;;;5073454;28;20922;-61
2023/11/02 01:52:32;;;;;;;4.10;1.67;;;12.80;97.30;;;;;;5073784;28;20491;-62
2023/11/02 01:55:03;;;;;;;5.20;1.00;;;12.80;97.10;;;;;;5073942;28;20425;-61
2023/11/02 01:57:42;;;;;;;1.97;0.90;;;12.80;97.40;;;;;;5073925;28;20436;-61
2023/11/02 02:00:16;;;;;;;3.00;1.40;;;12.80;97.30;;;;;;5073655;28;20431;-61
2023/11/02 02:02:47;;;;;;;4.50;0.70;;;12.80;97.30;;;;;;5073790;28;20452;-61
2023/11/02 02:05:21;;;;;;;2.40;1.00;;;12.80;97.20;;;;;;5073711;28;20487;-61
2023/11/02 02:07:59;;;;;;;4.67;1.30;;;12.70;97.30;;;;;;5073394;28;20430;-61
2023/11/02 02:10:31;;;;;;;6.87;2.30;;;12.70;97.20;;;;;;5073204;28;20432;-61
2023/11/02 02:13:15;;;;;;;3.33;1.10;;;12.70;97.10;;;;;;5073495;28;20470;-61
2023/11/02 02:15:57;;;;;;;2.53;1.50;;;12.80;97.50;;;;;;5073575;28;20433;-61
2023/11/02 02:18:34;;;;;;;4.50;1.20;;;12.80;97.10;;;;;;5073562;28;20799;-61
2023/11/02 02:21:12;;;;;;;7.33;1.10;;;12.90;97.20;;;;;;5073351;28;20424;-62
2023/11/02 02:23:48;;;;;;;6.60;1.77;;;12.90;97.10;;;;;;5073451;28;20512;-61
2023/11/02 02:26:41;;;;;;;2.47;1.50;;;12.80;96.80;;;;;;5074341;28;20427;-61
2023/11/02 02:29:32;;;;;;;5.73;1.70;;;12.90;97.20;;;;;;5070882;28;20464;-61
2023/11/02 02:32:34;;;;;;;3.60;1.50;;;12.90;97.10;;;;;;5073492;28;20491;-61
2023/11/02 02:35:08;;;;;;;4.07;1.47;;;12.90;97.10;;;;;;5073315;28;20507;-61
2023/11/02 02:37:40;;;;;;;6.63;1.13;;;12.80;97.20;;;;;;5072698;28;20468;-61
2023/11/02 02:40:09;;;;;;;5.70;1.30;;;12.90;97.00;;;;;;5073434;28;20425;-61
2023/11/02 02:42:37;;;;;;;6.27;1.50;;;12.80;96.70;;;;;;5073274;28;20456;-61
2023/11/02 02:45:09;;;;;;;2.60;0.90;;;12.80;96.90;;;;;;5073483;28;20445;-61
2023/11/02 02:47:38;;;;;;;2.60;1.27;;;12.80;97.10;;;;;;5073271;28;20425;-61
2023/11/02 02:50:09;;;;;;;4.20;1.40;;;12.80;97.10;;;;;;5073135;28;20529;-61
2023/11/02 02:52:38;;;;;;;1.97;1.03;;;12.90;96.70;;;;;;5072796;28;21009;-61
2023/11/02 02:55:08;;;;;;;4.23;2.20;;;12.90;96.70;;;;;;5072910;28;20480;-61
2023/11/02 02:57:37;;;;;;;5.17;1.63;;;12.90;96.50;;;;;;5074029;28;20437;-60
2023/11/02 03:00:05;;;;;;;3.13;1.30;;;12.80;96.60;;;;;;5073193;28;20444;-61
2023/11/02 03:02:32;;;;;;;3.43;1.47;;;12.90;96.80;;;;;;5073017;28;20468;-61
2023/11/02 03:05:00;;;;;;;3.30;1.23;;;12.80;96.40;;;;;;5073030;28;20444;-61
2023/11/02 03:07:32;;;;;;;3.73;1.30;;;12.90;96.80;;;;;;5073051;28;20448;-61
2023/11/02 03:10:01;;;;;;;4.43;1.00;;;12.90;96.40;;;;;;5072738;28;20436;-61
2023/11/02 03:12:33;;;;;;;6.20;1.17;;;12.90;96.00;;;;;;5072681;28;20927;-61
2023/11/02 03:15:01;;;;;;;4.27;1.57;;;12.90;96.00;;;;;;5072990;28;20429;-61
2023/11/02 03:17:41;;;;;;;4.93;1.23;;;12.90;96.00;;;;;;5072965;28;20448;-61
2023/11/02 03:20:10;;;;;;;7.27;1.50;;;13.00;96.20;;;;;;5072759;28;20836;-61
2023/11/02 03:22:41;;;;;;;4.57;1.70;;;13.00;96.10;;;;;;5072937;28;20469;-61
2023/11/02 03:25:10;;;;;;;3.53;1.13;;;13.00;95.70;;;;;;5072580;28;20866;-61
2023/11/02 03:27:48;;;;;;;4.80;1.80;;;13.10;95.80;;;;;;5072558;28;20445;-61
2023/11/02 03:30:24;;;;;;;3.37;1.30;;;13.10;95.90;;;;;;5072874;28;20799;-61
2023/11/02 03:32:59;;;;;;;3.10;1.20;;;13.10;96.10;;;;;;5072606;28;20492;-61
2023/11/02 03:35:33;;;;;;;2.93;1.37;;;13.20;96.40;;;;;;5072508;28;20429;-61
2023/11/02 03:38:14;;;;;;;3.60;1.20;;;13.20;96.20;;;;;;5072610;28;20436;-61
2023/11/02 03:40:59;;;;;;;5.50;1.13;;;13.20;96.30;;;;;;5072736;28;20429;-61
2023/11/02 03:43:33;;;;;;;3.90;1.33;;;13.20;96.20;;;;;;5072372;28;20946;-61
2023/11/02 03:46:16;;;;;;;9.53;1.60;;;13.20;95.90;;;;;;5072374;28;20953;-61
2023/11/02 03:48:45;;;;;;;3.97;1.43;;;13.10;96.10;;;;;;5073629;28;20460;-61
2023/11/02 03:51:32;;;;;;;7.33;1.40;;;13.10;96.10;;;;;;5075989;28;20460;-61
2023/11/02 03:54:15;;;;;;;4.77;1.87;;;13.10;96.10;;;;;;5076095;28;20465;-61
2023/11/02 03:56:56;;;;;;;4.00;1.73;;;13.00;95.40;;;;;;5075888;28;20426;-61
2023/11/02 03:59:32;;;;;;;6.70;1.93;;;13.00;95.70;;;;;;5075731;28;20902;-61
2023/11/02 04:02:01;;;;;;;2.60;1.60;;;12.90;94.90;;;;;;5075946;28;20543;-61
2023/11/02 04:04:35;;;;;;;6.63;1.80;;;12.90;95.00;;;;;;5075602;28;20931;-61
2023/11/02 04:07:06;;;;;;;3.37;1.47;;;12.90;95.10;;;;;;5075885;28;20433;-61
2023/11/02 04:09:40;;;;;;;3.73;1.20;;;12.90;95.00;;;;;;5075848;28;20418;-60
2023/11/02 04:12:17;;;;;;;3.87;1.90;;;12.90;94.60;;;;;;5075161;28;21016;-61
2023/11/02 04:14:44;;;;;;;3.47;1.20;;;12.80;94.50;;;;;;5075569;28;20437;-61
2023/11/02 04:17:12;;;;;;;2.67;1.60;;;12.90;94.80;;;;;;5075724;28;20472;-61
2023/11/02 04:19:39;;;;;;;2.13;1.40;;;12.90;94.90;;;;;;5075616;28;20480;-61
2023/11/02 04:22:07;;;;;;;4.70;1.73;;;12.90;95.10;;;;;;5075468;28;20456;-61
2023/11/02 04:24:35;;;;;;;5.33;1.40;;;13.00;95.10;;;;;;5075183;28;20942;-61
2023/11/02 04:27:02;;;;;;;8.87;2.57;;;12.90;94.60;;;;;;5075448;28;20447;-61
2023/11/02 04:29:30;;;;;;;4.90;1.60;;;12.90;94.80;;;;;;5076205;28;20475;-61
2023/11/02 04:31:56;;;;;;;2.60;1.57;;;12.90;94.70;;;;;;5074982;28;20994;-61
2023/11/02 04:34:23;;;;;;;4.83;1.10;;;12.90;95.60;;;;;;5075267;28;20444;-61
2023/11/02 04:36:51;;;;;;;5.60;1.33;;;13.00;95.40;;;;;;5074999;28;20445;-60
2023/11/02 04:39:18;;;;;;;5.03;1.23;;;13.00;94.70;;;;;;5075758;28;20444;-60
2023/11/02 04:41:46;;;;;;;3.50;1.23;;;13.00;94.90;;;;;;5075160;28;20504;-60
2023/11/02 04:44:13;;;;;;;1.43;1.10;;;13.00;94.80;;;;;;5075140;28;20452;-60
2023/11/02 04:46:40;;;;;;;4.17;1.50;;;12.90;94.50;;;;;;5075171;28;20816;-61
2023/11/02 04:49:08;;;;;;;2.20;1.73;;;12.90;94.40;;;;;;5075028;28;20441;-61
2023/11/02 04:51:35;;;;;;;2.80;1.33;;;12.90;94.40;;;;;;5074864;28;20481;-61
2023/11/02 04:54:01;;;;;;;2.17;1.30;;;12.90;94.70;;;;;;5074626;28;20943;-61
2023/11/02 04:56:28;;;;;;;8.00;1.03;;;12.90;94.50;;;;;;5074793;28;20539;-61
2023/11/02 04:58:56;;;;;;;6.13;1.30;;;12.90;94.10;;;;;;5074418;28;20452;-61
2023/11/02 05:01:23;;;;;;;2.10;1.00;;;13.00;94.40;;;;;;5074274;28;20979;-61
2023/11/02 05:03:51;;;;;;;2.47;1.23;;;13.00;94.30;;;;;;5075295;28;20444;-61
2023/11/02 05:06:17;;;;;;;10.40;1.20;;;12.90;94.30;;;;;;5074692;28;20444;-61
2023/11/02 05:08:44;;;;;;;8.37;1.87;;;12.90;94.20;;;;;;5074684;28;20440;-61
2023/11/02 05:11:11;;;;;;;2.90;1.10;;;12.90;93.70;;;;;;5074302;28;20456;-61
2023/11/02 05:13:37;;;;;;;5.07;1.10;;;12.90;94.20;;;;;;5074467;28;20492;-61
2023/11/02 05:16:07;;;;;;;2.47;1.03;;;12.90;94.00;;;;;;5074288;28;20445;-60
2023/11/02 05:18:33;;;;;;;2.83;0.97;;;12.90;94.30;;;;;;5074494;28;20452;-61
2023/11/02 05:21:00;;;;;;;3.70;1.20;;;12.90;94.40;;;;;;5074206;28;20490;-61
2023/11/02 05:23:27;;;;;;;3.13;1.30;;;12.80;94.10;;;;;;5074283;28;20443;-61
2023/11/02 05:25:54;;;;;;;3.40;1.00;;;12.80;94.10;;;;;;5074368;28;20535;-61
2023/11/02 05:28:21;;;;;;;2.40;1.00;;;12.80;94.20;;;;;;5074399;28;20464;-61
2023/11/02 05:30:48;;;;;;;4.03;1.20;;;12.90;94.30;;;;;;5074274;28;20545;-60
2023/11/02 05:33:16;;;;;;;3.03;1.03;;;12.80;94.40;;;;;;5074061;28;20481;-61
2023/11/02 05:35:43;;;;;;;2.17;0.90;;;12.80;94.40;;;;;;5073723;28;20448;-60
2023/11/02 05:38:09;;;;;;;2.30;1.07;;;12.80;94.20;;;;;;5074085;28;20474;-60
2023/11/02 05:40:36;;;;;;;1.83;0.97;;;12.80;94.50;;;;;;5074159;28;20519;-61
2023/11/02 05:43:03;;;;;;;6.67;0.90;;;12.80;94.70;;;;;;5074259;28;20518;-61
2023/11/02 05:45:29;;;;;;;2.47;0.97;;;12.80;94.60;;;;;;5074570;28;20447;-61
2023/11/02 05:47:56;;;;;;;2.70;1.13;;;12.80;95.10;;;;;;5074328;28;20440;-60
2023/11/02 05:50:24;;;;;;;1.80;0.90;;;12.80;95.10;;;;;;5074099;28;20447;-60
2023/11/02 05:52:51;;;;;;;2.60;1.00;;;12.80;95.00;;;;;;5073775;28;20494;-61
2023/11/02 05:55:17;;;;;;;2.93;1.00;;;12.80;95.10;;;;;;5073689;28;20441;-60
2023/11/02 05:57:44;;;;;;;2.10;1.10;;;12.80;95.30;;;;;;5073834;28;20445;-61
2023/11/02 06:00:11;;;;;;;5.37;1.37;;;12.80;95.30;;;;;;5073909;28;20440;-61
2023/11/02 06:02:38;;;;;;;2.70;1.23;;;12.90;95.50;;;;;;5073482;28;20997;-61
2023/11/02 06:05:06;;;;;;;1.93;0.60;;;12.90;95.50;;;;;;5073786;28;20506;-61
2023/11/02 06:07:34;;;;;;;2.80;1.20;;;12.90;95.40;;;;;;5073460;28;20445;-60
2023/11/02 06:10:01;;;;;;;3.00;1.40;;;13.00;95.30;;;;;;5073703;28;20454;-60
2023/11/02 06:12:29;;;;;;;2.33;0.70;;;13.00;95.60;;;;;;5072425;28;20496;-61
2023/11/02 06:14:56;;;;;;;5.13;1.20;;;13.00;95.60;;;;;;5073528;28;20811;-61
2023/11/02 06:17:23;;;;;;;1.90;1.03;;;13.00;95.50;;;;;;5073399;28;20452;-60
2023/11/02 06:19:49;;;;;;;3.23;1.00;;;13.00;95.60;;;;;;5073611;28;20469;-60
2023/11/02 06:22:16;;;;;;;3.37;1.10;;;13.00;95.90;;;;;;5073396;28;20457;-60
2023/11/02 06:24:45;;;;;;;2.50;0.80;;;13.00;95.90;;;;;;5073541;28;20444;-60
2023/11/02 06:27:12;;;;;;;4.57;0.90;;;13.00;96.00;;;;;;5073365;28;20484;-60
2023/11/02 06:29:39;;;;;;;2.83;0.90;;;13.00;96.20;;;;;;5073107;28;20946;-61
2023/11/02 06:32:06;;;;;;;2.43;0.93;;;13.00;96.20;;;;;;5073278;28;20491;-60
2023/11/02 06:34:36;;;;;;;2.10;1.00;;;13.10;96.50;;;;;;5073296;28;20448;-60
2023/11/02 06:37:04;;;;;;;2.00;1.30;;;13.10;96.20;;;;;;5073075;28;20429;-60
2023/11/02 06:39:31;;;;;;;3.30;1.27;;;13.00;96.30;;;;;;5074067;28;20448;-60
2023/11/02 06:41:59;;;;;;;3.27;1.27;;;13.10;96.50;;;;;;5073148;28;20460;-60
2023/11/02 06:44:25;;;;;;;2.70;1.00;;;13.10;96.70;;;;;;5072852;28;20441;-60
2023/11/02 06:46:53;;;;;;;1.63;0.60;;;13.00;96.80;;;;;;5073249;28;20444;-60
2023/11/02 06:49:19;;;;;;;1.80;0.80;;;13.10;97.00;;;;;;5072247;28;20442;-60
2023/11/02 06:51:46;;;;;;;2.40;0.80;;;13.20;97.40;;;;;;5072777;28;20222;-60
2023/11/02 06:54:13;;;;;;;3.17;0.60;;;13.20;97.60;;;;;;5073094;28;20488;-60
2023/11/02 06:56:40;;;;;;;0.90;0.80;;;13.20;98.00;;;;;;5073001;28;20881;-58
2023/11/02 06:59:08;;;;;;;1.00;0.80;;;13.20;98.30;;;;;;5073151;28;20455;-58
2023/11/02 07:01:36;;;;;;;0.70;0.70;;;13.20;99.40;;;;;;5072973;28;20476;-59
2023/11/02 07:04:03;;;;;;;3.07;0.80;;;13.20;99.70;;;;;;5072974;28;20463;-59
2023/11/02 07:06:30;;;;;;;0.70;0.70;;;13.20;99.90;;;;;;5072709;28;20452;-60
2023/11/02 07:08:57;;;;;;;2.53;0.80;;;13.20;99.70;;;;;;5072799;28;20449;-60
2023/11/02 07:11:23;;;;;;;1.23;0.50;;;13.10;99.90;;;;;;5072890;28;20488;-58
2023/11/02 07:13:50;;;;;;;1.33;0.67;;;13.10;99.90;;;;;;5072928;28;20484;-59
2023/11/02 07:16:18;;;;;;;2.00;0.47;;;13.10;99.90;;;;;;5072876;28;20444;-59
2023/11/02 07:18:45;;;;;;;2.93;0.80;;;13.20;99.90;;;;;;5072973;28;20531;-60
2023/11/02 07:21:12;;;;;;;0.93;0.60;;;13.20;99.90;;;;;;5072900;28;20445;-60
2023/11/02 07:23:37;;;;;;;1.27;0.53;;;13.30;99.90;;;;;;5075363;28;20441;-60
2023/11/02 07:26:05;;;;;;;0.87;0.60;;;13.30;99.90;;;;;;5076716;28;20448;-60
2023/11/02 07:28:31;;;;;;;1.03;0.77;;;13.30;99.90;;;;;;5076702;28;20218;-60
2023/11/02 07:30:58;;;;;;;3.20;0.50;;;13.30;99.70;;;;;;5076695;28;20441;-60
2023/11/02 07:33:26;;;;;;;0.50;0.43;;;13.30;99.60;;;;;;5076604;28;20476;-60
2023/11/02 07:35:53;;;;;;;0.60;0.43;;;13.30;99.40;;;;;;5076413;28;20506;-60
2023/11/02 07:38:20;;;;;;;1.10;0.73;;;13.40;99.60;;;;;;5076505;28;20452;-61
2023/11/02 07:40:47;;;;;;;4.00;0.63;;;13.50;99.30;;;;;;5076122;28;20455;-61
2023/11/02 07:43:14;;;;;;;5.17;1.10;;;13.40;98.80;;;;;;5076392;28;20480;-61
2023/11/02 07:45:40;;;;;;;2.23;0.83;;;13.50;98.80;;;;;;5076327;28;20467;-61
2023/11/02 07:48:07;;;;;;;1.93;0.80;;;13.60;98.50;;;;;;5076237;28;20448;-61
2023/11/02 07:50:35;;;;;;;1.37;0.90;;;13.60;98.50;;;;;;5076188;28;20444;-61
2023/11/02 07:53:02;;;;;;;3.77;0.83;;;13.70;98.50;;;;;;5076029;28;20472;-60
2023/11/02 07:55:28;;;;;;;3.17;1.00;;;13.70;98.10;;;;;;5076051;28;20448;-60
2023/11/02 07:57:56;;;;;;;1.13;1.03;;;13.70;97.90;;;;;;5075980;28;20456;-60
2023/11/02 08:00:23;;;;;;;1.23;0.70;;;13.70;98.10;;;;;;5076007;28;20547;-61
2023/11/02 08:02:50;;;;;;;1.60;0.70;;;13.70;97.90;;;;;;5076023;28;20456;-61
2023/11/02 08:05:16;;;;;;;2.80;0.87;;;13.70;97.80;;;;;;5075927;28;20445;-60
2023/11/02 08:07:44;;;;;;;0.77;0.73;;;13.80;97.90;;;;;;5075858;28;20456;-61
2023/11/02 08:10:11;;;;;;;2.87;0.77;;;13.80;97.90;;;;;;5075707;28;20477;-61
2023/11/02 08:12:38;;;;;;;3.70;0.80;;;13.80;97.70;;;;;;5075670;28;20537;-60
2023/11/02 08:15:05;;;;;;;0.47;0.47;;;13.80;97.80;;;;;;5075758;28;20440;-61
2023/11/02 08:17:32;;;;;;;1.80;0.60;;;13.80;97.90;;;;;;5075566;28;20499;-61
2023/11/02 08:19:59;;;;;;;0.93;0.80;;;13.80;97.80;;;;;;5075731;28;20444;-60
2023/11/02 08:22:25;;;;;;;1.07;0.53;;;13.80;97.70;;;;;;5075635;28;20898;-60
2023/11/02 08:24:53;;;;;;;1.03;0.70;;;13.90;97.60;;;;;;5075745;28;20451;-60
2023/11/02 08:27:20;;;;;;;1.27;0.83;;;13.90;97.50;;;;;;5075494;28;20445;-60
2023/11/02 08:29:47;;;;;;;1.40;0.77;;;14.00;97.50;;;;;;5075528;28;20441;-61
2023/11/02 08:32:14;;;;;;;2.70;1.00;;;14.00;97.20;;;;;;5075226;28;20504;-61
2023/11/02 08:34:41;;;;;;;1.37;0.70;;;14.00;97.20;;;;;;5074472;28;20488;-61
2023/11/02 08:37:09;;;;;;;1.80;0.77;;;14.10;97.00;;;;;;5075245;28;20452;-61
2023/11/02 08:39:36;;;;;;;2.83;0.70;;;14.20;96.90;;;;;;5075328;28;20488;-61
2023/11/02 08:42:04;;;;;;;3.00;1.20;;;14.20;96.50;;;;;;5074697;28;21028;-60
2023/11/02 08:44:31;;;;;;;0.90;0.80;;;14.10;96.40;;;;;;5075197;28;20861;-60
2023/11/02 08:46:58;;;;;;;0.50;0.50;;;14.10;96.60;;;;;;5075118;28;20449;-60
2023/11/02 08:49:24;;;;;;;1.80;0.60;;;14.10;96.60;;;;;;5075657;28;20440;-60
2023/11/02 08:51:51;;;;;;;0.93;0.70;;;14.10;96.50;;;;;;5076026;28;20456;-60
2023/11/02 08:54:18;;;;;;;2.23;0.77;;;14.00;96.50;;;;;;5074829;28;20989;-60
2023/11/02 08:56:45;;;;;;;2.00;0.97;;;14.10;96.70;;;;;;5074672;28;20961;-60
2023/11/02 08:59:13;;;;;;;4.60;0.67;;;14.10;96.70;;;;;;5074928;28;20566;-60
2023/11/02 09:01:42;;;;;;;0.80;0.40;;;14.10;96.60;;;;;;5074781;28;20488;-60
2023/11/02 09:04:08;;;;;;;4.63;1.13;;;14.20;96.60;;;;;;5074836;28;20445;-60
2023/11/02 09:06:35;;;;;;;3.03;0.70;;;14.30;96.40;;;;;;5074885;28;20467;-60
2023/11/02 09:09:02;;;;;;;1.90;1.00;;;14.20;96.40;;;;;;5074739;28;20447;-60
2023/11/02 09:11:29;;;;;;;2.30;0.60;;;14.20;96.50;;;;;;5074377;28;20468;-60
2023/11/02 09:13:55;;;;;;;1.80;0.70;;;14.20;96.60;;;;;;5074505;28;20507;-60
2023/11/02 09:16:23;;;;;;;2.33;0.80;;;14.20;96.60;;;;;;5074374;28;20508;-60
2023/11/02 09:18:51;;;;;;;2.83;0.77;;;14.30;96.70;;;;;;5074484;28;20448;-60
2023/11/02 09:21:18;;;;;;;2.73;0.80;;;14.40;96.60;;;;;;5074362;28;20461;-60
2023/11/02 09:23:45;;;;;;;2.40;0.60;;;14.30;96.30;;;;;;5074147;28;20827;-60
2023/11/02 09:26:12;;;;;;;3.13;1.10;;;14.40;96.20;;;;;;5074347;28;20474;-60
2023/11/02 09:28:39;;;;;;;3.93;0.90;;;14.40;96.10;;;;;;5073978;28;20892;-60
2023/11/02 09:31:06;;;;;;;2.00;0.87;;;14.50;95.90;;;;;;5073937;28;20942;-60
2023/11/02 09:33:34;;;;;;;2.63;0.73;;;14.50;95.30;;;;;;5074165;28;20480;-60
2023/11/02 09:36:01;;;;;;;3.37;0.93;;;14.60;95.10;;;;;;5074216;28;20440;-60
2023/11/02 09:38:27;;;;;;;3.97;1.10;;;14.70;94.90;;;;;;5073680;28;20973;-60
2023/11/02 09:40:54;;;;;;;1.70;0.57;;;14.80;94.50;;;;;;5073688;28;20953;-60
2023/11/02 09:43:21;;;;;;;4.47;1.40;;;14.90;93.40;;;;;;5074017;28;20448;-60
2023/11/02 09:45:48;;;;;;;5.23;0.93;;;14.90;92.70;;;;;;5073918;28;20444;-60
2023/11/02 09:48:15;;;;;;;0.70;0.70;;;14.90;91.90;;;;;;5073947;28;20473;-60
2023/11/02 09:50:43;;;;;;;5.90;0.90;;;15.00;92.00;;;;;;5073847;28;20467;-60
2023/11/02 09:53:10;;;;;;;7.10;1.00;;;15.00;91.20;;;;;;5073731;28;20534;-60
2023/11/02 09:55:39;;;;;;;2.53;0.90;;;15.20;91.00;;;;;;5073766;28;20440;-60
2023/11/02 09:58:07;;;;;;;5.53;0.80;;;15.20;90.50;;;;;;5073588;28;20441;-60
2023/11/02 10:00:34;;;;;;;3.77;1.00;;;15.30;90.10;;;;;;5073779;28;20456;-60
2023/11/02 10:03:01;;;;;;;4.27;0.77;;;15.30;90.00;;;;;;5073701;28;20460;-60
2023/11/02 10:05:29;;;;;;;3.97;1.23;;;15.40;90.10;;;;;;5073727;28;20440;-60
2023/11/02 10:07:57;;;;;;;6.87;1.23;;;15.30;87.20;;;;;;5073608;28;20539;-60
2023/11/02 10:10:23;;;;;;;5.77;1.10;;;15.40;87.30;;;;;;5073029;28;20966;-60
2023/11/02 10:12:50;;;;;;;3.53;1.33;;;15.40;86.50;;;;;;5073591;28;20460;-61
2023/11/02 10:15:17;;;;;;;4.67;0.80;;;15.40;87.10;;;;;;5073478;28;20489;-61
2023/11/02 10:17:45;;;;;;;2.97;1.00;;;15.40;86.20;;;;;;5073100;28;20942;-60
2023/11/02 10:20:13;;;;;;;1.70;0.87;;;15.50;86.10;;;;;;5073221;28;20939;-60
2023/11/02 10:22:40;;;;;;;2.87;1.20;;;15.70;86.50;;;;;;5073122;28;20469;-60
2023/11/02 10:25:12;;;;;;;4.57;0.80;;;15.70;85.50;;;;;;5073497;28;20539;-60
2023/11/02 10:27:40;;;;;;;2.80;1.00;;;15.80;84.70;;;;;;5073502;28;20421;-60
2023/11/02 10:30:07;;;;;;;3.70;0.97;;;15.80;83.90;;;;;;5073051;28;20960;-60
2023/11/02 10:32:36;;;;;;;6.40;1.27;;;15.90;85.10;;;;;;5073301;28;20464;-60
2023/11/02 10:35:03;;;;;;;3.87;0.80;;;15.90;82.50;;;;;;5073297;28;20477;-60
2023/11/02 10:37:32;;;;;;;9.15;1.63;;;16.00;82.00;;;;;;5072028;28;20434;-61
2023/11/02 10:39:59;;;;;;;3.67;0.97;;;16.00;81.20;;;;;;5073238;28;20205;-60
2023/11/02 10:42:29;;;;;;;4.97;1.30;;;16.00;79.80;;;;;;5073210;28;20835;-60
2023/11/02 10:44:57;;;;;;;5.13;1.10;;;15.90;79.90;;;;;;5073204;28;20440;-60
2023/11/02 10:47:27;;;;;;;5.90;1.40;;;15.80;79.40;;;;;;5072853;28;20938;-61
2023/11/02 10:49:55;;;;;;;5.20;1.10;;;15.90;80.30;;;;;;5073219;28;20421;-61
2023/11/02 10:52:29;;;;;;;4.63;0.93;;;15.90;78.80;;;;;;5073084;28;20526;-60
2023/11/02 10:55:08;;;;;;;3.70;1.10;;;16.00;80.40;;;;;;5072817;28;20464;-60
2023/11/02 10:57:37;;;;;;;5.10;1.57;;;16.10;78.10;;;;;;5073817;28;20432;-60
2023/11/02 11:00:05;;;;;;;6.60;2.37;;;16.40;78.20;;;;;;5077193;28;20468;-60
2023/11/02 11:02:32;;;;;;;4.90;1.30;;;16.70;76.10;;;;;;5077085;28;20485;-60
2023/11/02 11:04:59;;;;;;;4.97;1.37;;;16.80;73.70;;;;;;5077079;28;20464;-61
2023/11/02 11:07:26;;;;;;;6.13;1.17;;;16.80;74.60;;;;;;5077025;28;20472;-61
2023/11/02 11:09:54;;;;;;;6.23;1.40;;;16.90;74.20;;;;;;5076653;28;20867;-61
2023/11/02 11:12:22;;;;;;;4.90;1.20;;;16.90;73.90;;;;;;5076488;28;20835;-60
2023/11/02 11:14:51;;;;;;;9.17;1.30;;;16.90;71.90;;;;;;5076774;28;20484;-60
2023/11/02 11:17:19;;;;;;;7.73;1.10;;;17.30;68.60;;;;;;5076599;28;20451;-60
2023/11/02 11:19:46;;;;;;;2.90;1.20;;;17.60;65.80;;;;;;5076739;28;20444;-60
2023/11/02 11:22:16;;;;;;;8.20;1.60;;;17.90;63.90;;;;;;5076672;28;20457;-61
2023/11/02 11:24:44;;;;;;;3.10;1.13;;;18.40;62.40;;;;;;5077520;28;20432;-61
2023/11/02 11:27:11;;;;;;;4.47;1.40;;;18.80;59.90;;;;;;5076336;28;20939;-60
2023/11/02 11:29:39;;;;;;;13.43;1.67;;;19.10;58.20;;;;;;5076586;28;20447;-60
2023/11/02 11:32:09;;;;;;;11.37;1.43;;;19.30;56.20;;;;;;5076465;28;20470;-61
2023/11/02 11:35:13;;;;;;;9.67;1.40;;;19.30;55.70;;;;;;5076457;28;20472;-60
2023/11/02 11:37:44;;;;;;;6.90;1.43;;;19.30;55.20;;;;;;5076335;28;20448;-61
2023/11/02 11:40:34;;;;;;;4.70;1.67;;;19.00;55.10;;;;;;5076394;28;20436;-60
2023/11/02 11:43:06;;;;;;;5.37;1.80;;;19.30;55.80;;;;;;5076058;28;20453;-60
2023/11/02 11:45:35;;;;;;;4.10;1.17;;;19.50;56.00;;;;;;5076317;28;20421;-60
2023/11/02 11:48:04;;;;;;;5.73;1.40;;;19.80;55.10;;;;;;5076006;28;20440;-60
2023/11/02 11:50:35;;;;;;;4.53;1.00;;;19.70;54.20;;;;;;5076227;28;20432;-61
2023/11/02 11:53:16;;;;;;;8.63;1.37;;;19.20;54.90;;;;;;5076192;28;20534;-61
2023/11/02 11:55:44;;;;;;;6.30;1.77;;;18.70;55.30;;;;;;5075749;28;20903;-61
2023/11/02 11:58:11;;;;;;;4.10;1.20;;;18.80;56.10;;;;;;5075585;28;20502;-60
2023/11/02 12:01:18;;;;;;;3.67;1.40;;;18.80;55.80;;;;;;5076104;28;20440;-60
2023/11/02 12:03:48;;;;;;;8.60;1.33;;;19.10;55.70;;;;;;5055299;28;20461;-61
2023/11/02 12:06:16;;;;;;;5.43;1.67;;;19.30;52.40;;;;;;5055843;28;20865;-60
2023/11/02 12:08:44;;;;;;;9.13;1.93;;;19.60;52.50;;;;;;5055319;28;20446;-60
2023/11/02 12:11:13;;;;;;;4.27;1.30;;;19.90;51.70;;;;;;5055198;28;20503;-60
2023/11/02 12:13:49;;;;;;;6.17;1.33;;;20.10;51.90;;;;;;5055817;28;20441;-60
2023/11/02 12:16:16;;;;;;;30.50;3.60;;;19.80;50.60;;;;;;5055760;28;20458;-61
2023/11/02 12:18:46;;;;;;;5.93;1.50;;;19.90;51.60;;;;;;5055626;28;20452;-60
2023/11/02 12:21:17;;;;;;;4.90;1.40;;;20.30;50.40;;;;;;5055625;28;20442;-61
2023/11/02 12:23:44;;;;;;;7.30;1.23;;;20.30;49.80;;;;;;5056270;28;20434;-60
2023/11/02 12:26:11;;;;;;;7.93;1.90;;;20.10;50.20;;;;;;5055573;28;20442;-60
2023/11/02 12:28:45;;;;;;;5.57;1.63;;;20.10;51.10;;;;;;5055301;28;20441;-61
2023/11/02 12:31:13;;;;;;;7.53;1.83;;;20.50;51.50;;;;;;5055135;28;20950;-61
2023/11/02 12:33:40;;;;;;;7.40;1.27;;;20.70;50.00;;;;;;5055401;28;20831;-61
2023/11/02 12:36:07;;;;;;;6.70;1.17;;;20.30;49.70;;;;;;5055466;28;20445;-61
2023/11/02 12:38:43;;;;;;;6.43;1.83;;;20.10;49.90;;;;;;5054932;28;20951;-60
2023/11/02 12:41:12;;;;;;;9.40;1.70;;;20.20;50.70;;;;;;5055329;28;20429;-61
2023/11/02 12:43:40;;;;;;;5.70;1.60;;;19.50;49.50;;;;;;5055225;28;20540;-60
2023/11/02 12:46:08;;;;;;;5.43;1.40;;;19.30;50.40;;;;;;5055287;28;20495;-60
2023/11/02 12:48:37;;;;;;;6.07;1.60;;;19.50;51.10;;;;;;5055200;28;20450;-60
2023/11/02 12:51:18;;;;;;;10.53;2.00;;;19.70;50.70;;;;;;5055100;28;20491;-60
2023/11/02 12:53:48;;;;;;;19.73;2.40;;;19.90;49.70;;;;;;5055007;28;20441;-61
2023/11/02 12:56:22;;;;;;;8.87;2.47;;;20.20;49.10;;;;;;5055008;28;20445;-61
2023/11/02 12:58:57;;;;;;;10.30;1.93;;;20.10;48.70;;;;;;5054838;28;20487;-60
2023/11/02 13:01:24;;;;;;;5.90;1.30;;;19.60;49.40;;;;;;5054883;28;20492;-61